Avery, Iowa
Current Conditions -  °F | °C
As of 5:53 AM on Tuesday 27 Jan 2015 (Local Time) from KOTM Reporting Station
Clear Clear  
Wind Chill: 22°   Ceiling: Unl
Heat Index: 31°   Visibility: 10mi
Dew Point: 28°   Wind: 10mph
Humidity: 89%   Direction: 330°NNW
Pressure: 30.07"   Gusts: NA
Location:  41.0299°N, 92.7795°W
Report Text: KOTM 271153Z AUTO 33009KT 10SM CLR M01/M02 A3007 RMK AO2 SLP188 T10061022 10022 21006 51017
Loading
Personal Weather Stations






























Interactive Weather Map New forecast layout! Learn more

10-Day Weather Forecast

Advertisements
Track Severe Weather on mobile